Time;durP1;ratioP1;P1;durP2;ratioP2;P2;SDS_P1;SDS_P2;PMS_P1;PMS_P2;Temp;Humidity;BMP_temperature;BMP_pressure;BME280_temperature;BME280_humidity;BME280_pressure;Samples;Min_cycle;Max_cycle;Signal;HPM_P1;HPM_P2
2021/05/11 00:01:56;;;;;;;5.03;4.60;;;;;;;;;;5003740;28;20182;-45
2021/05/11 00:04:21;;;;;;;6.60;5.07;;;;;;;;;;5003442;28;20170;-45
2021/05/11 00:06:46;;;;;;;8.87;6.63;;;;;;;;;;5009030;28;20189;-45
2021/05/11 00:09:11;;;;;;;6.17;5.53;;;;;;;;;;5011259;28;20314;-46
2021/05/11 00:11:37;;;;;;;5.68;5.18;;;;;;;;;;5010335;28;20237;-46
2021/05/11 00:14:03;;;;;;;5.40;4.90;;;;;;;;;;5011490;28;20169;-46
2021/05/11 00:16:28;;;;;;;5.63;5.13;;;;;;;;;;5003423;28;20170;-46
2021/05/11 00:18:54;;;;;;;5.60;4.83;;;;;;;;;;5009351;28;20989;-45
2021/05/11 00:21:19;;;;;;;4.83;4.47;;;;;;;;;;5010029;28;20552;-45
2021/05/11 00:23:44;;;;;;;5.60;5.20;;;;;;;;;;5010569;28;20188;-46
2021/05/11 00:26:10;;;;;;;5.57;4.88;;;;;;;;;;5006960;28;20576;-46
2021/05/11 00:28:35;;;;;;;7.33;5.00;;;;;;;;;;5008120;28;20186;-46
2021/05/11 00:31:00;;;;;;;4.72;4.30;;;;;;;;;;5015340;28;20208;-46
2021/05/11 00:33:25;;;;;;;5.77;5.23;;;;;;;;;;5011015;28;20633;-46
2021/05/11 00:35:50;;;;;;;5.50;5.10;;;;;;;;;;5009123;28;20267;-45
2021/05/11 00:38:16;;;;;;;5.68;5.25;;;;;;;;;;5010062;28;20185;-45
2021/05/11 00:40:41;;;;;;;5.25;4.85;;;;;;;;;;5010776;28;20215;-45
2021/05/11 00:43:06;;;;;;;5.18;4.88;;;;;;;;;;5010552;28;20187;-45
2021/05/11 00:45:31;;;;;;;6.63;4.97;;;;;;;;;;5006547;28;20194;-46
2021/05/11 00:47:56;;;;;;;5.37;4.93;;;;;;;;;;5005158;28;20793;-46
2021/05/11 00:50:21;;;;;;;5.40;4.90;;;;;;;;;;5010151;28;20236;-46
2021/05/11 00:52:47;;;;;;;5.67;5.17;;;;;;;;;;4997464;28;20204;-45
2021/05/11 00:55:13;;;;;;;5.50;4.70;;;;;;;;;;5008480;28;20260;-45
2021/05/11 00:57:38;;;;;;;5.37;5.00;;;;;;;;;;5005489;28;20543;-45
2021/05/11 01:00:10;;;;;;;5.77;5.27;;;;;;;;;;5006448;28;20235;-45
2021/05/11 01:02:36;;;;;;;6.00;5.00;;;;;;;;;;5005230;28;20176;-46
2021/05/11 01:05:02;;;;;;;4.97;4.67;;;;;;;;;;5010133;28;20603;-45
2021/05/11 01:07:27;;;;;;;5.67;5.17;;;;;;;;;;5007951;28;20181;-45
2021/05/11 01:09:53;;;;;;;5.68;5.28;;;;;;;;;;5010008;28;20615;-44
2021/05/11 01:12:18;;;;;;;4.90;4.60;;;;;;;;;;5001637;28;20250;-45
2021/05/11 01:14:43;;;;;;;5.50;5.10;;;;;;;;;;5009977;28;20189;-45
2021/05/11 01:17:16;;;;;;;5.43;4.97;;;;;;;;;;4998435;28;20181;-45
2021/05/11 01:19:55;;;;;;;5.23;4.83;;;;;;;;;;5010288;28;20534;-45
2021/05/11 01:24:49;;;;;;;6.10;5.20;;;;;;;;;;5010333;28;20594;-45
2021/05/11 01:27:33;;;;;;;4.87;4.57;;;;;;;;;;4999622;28;20556;-45
2021/05/11 01:30:28;;;;;;;5.50;5.10;;;;;;;;;;5000218;28;20665;-46
2021/05/11 01:33:14;;;;;;;7.00;5.30;;;;;;;;;;5012394;28;20637;-45
2021/05/11 01:49:11;;;;;;;6.43;5.00;;;;;;;;;;5009110;28;20653;-45
2021/05/11 01:52:19;;;;;;;5.50;5.03;;;;;;;;;;5002838;28;20722;-45
2021/05/11 01:55:05;;;;;;;6.07;5.47;;;;;;;;;;5004650;28;20562;-45
2021/05/11 02:17:47;;;;;;;5.20;4.80;;;;;;;;;;5006311;28;21229;-45
2021/05/11 02:24:50;;;;;;;6.27;5.67;;;;;;;;;;5008985;28;20609;-45
2021/05/11 02:27:15;;;;;;;5.87;5.37;;;;;;;;;;5008833;28;21164;-45
2021/05/11 02:29:40;;;;;;;5.87;5.47;;;;;;;;;;5008807;28;20187;-45
2021/05/11 02:32:06;;;;;;;4.97;4.68;;;;;;;;;;4994643;28;20200;-46
2021/05/11 02:34:31;;;;;;;5.73;5.33;;;;;;;;;;5009594;28;20189;-45
2021/05/11 02:36:56;;;;;;;5.80;5.30;;;;;;;;;;4998424;28;20228;-45
2021/05/11 02:39:21;;;;;;;6.47;5.65;;;;;;;;;;5009073;28;20295;-46
2021/05/11 02:41:46;;;;;;;7.43;5.97;;;;;;;;;;4999786;28;20191;-46
2021/05/11 02:44:14;;;;;;;5.40;5.03;;;;;;;;;;4992940;28;20172;-45
2021/05/11 02:46:40;;;;;;;5.97;5.47;;;;;;;;;;4999885;28;20188;-45
2021/05/11 02:49:06;;;;;;;6.05;5.45;;;;;;;;;;5016403;28;20605;-45
2021/05/11 02:51:32;;;;;;;5.57;5.17;;;;;;;;;;5001386;28;20224;-46
2021/05/11 02:53:57;;;;;;;5.50;5.10;;;;;;;;;;5002287;28;21166;-46
2021/05/11 02:56:22;;;;;;;6.20;5.35;;;;;;;;;;5010167;28;20188;-45
2021/05/11 02:58:49;;;;;;;6.47;5.90;;;;;;;;;;5009244;28;20537;-46
2021/05/11 03:01:14;;;;;;;6.00;5.60;;;;;;;;;;5011770;28;20242;-45
2021/05/11 03:03:40;;;;;;;6.07;5.47;;;;;;;;;;5008208;28;20967;-44
2021/05/11 03:06:05;;;;;;;6.70;6.07;;;;;;;;;;5006157;28;20190;-45
2021/05/11 03:08:30;;;;;;;5.80;5.30;;;;;;;;;;5008707;28;20185;-45
2021/05/11 03:10:55;;;;;;;5.95;5.45;;;;;;;;;;5001901;28;20228;-45
2021/05/11 03:13:20;;;;;;;5.87;5.37;;;;;;;;;;5008370;28;20189;-44
2021/05/11 03:15:45;;;;;;;6.90;5.90;;;;;;;;;;4996309;28;20196;-45
2021/05/11 03:18:10;;;;;;;6.90;6.30;;;;;;;;;;5004972;28;20199;-45
2021/05/11 03:20:36;;;;;;;6.90;6.30;;;;;;;;;;4997591;28;20180;-44
2021/05/11 03:23:01;;;;;;;8.60;6.10;;;;;;;;;;5004629;28;20207;-46
2021/05/11 03:25:27;;;;;;;6.20;5.80;;;;;;;;;;5010674;28;20208;-46
2021/05/11 03:27:52;;;;;;;6.07;5.40;;;;;;;;;;5011674;28;20190;-46
2021/05/11 03:30:17;;;;;;;6.67;6.00;;;;;;;;;;5009785;28;20188;-45
2021/05/11 03:32:42;;;;;;;7.27;6.60;;;;;;;;;;5006734;28;20204;-45
2021/05/11 03:35:08;;;;;;;6.57;5.97;;;;;;;;;;5008595;28;20184;-45
2021/05/11 03:37:33;;;;;;;6.50;5.97;;;;;;;;;;5012738;28;20188;-45
2021/05/11 03:39:58;;;;;;;6.75;6.25;;;;;;;;;;5010992;28;20247;-45
2021/05/11 03:42:26;;;;;;;9.20;7.63;;;;;;;;;;5003799;28;20235;-45
2021/05/11 03:44:55;;;;;;;7.80;7.10;;;;;;;;;;4992651;28;20193;-45
2021/05/11 03:47:22;;;;;;;8.17;6.47;;;;;;;;;;5011418;28;20599;-46
2021/05/11 03:49:47;;;;;;;6.17;5.63;;;;;;;;;;5011572;28;21044;-46
2021/05/11 03:52:12;;;;;;;7.77;6.47;;;;;;;;;;5008008;28;20750;-45
2021/05/11 03:54:37;;;;;;;7.07;6.55;;;;;;;;;;5011326;28;20222;-46
2021/05/11 03:57:03;;;;;;;6.23;5.70;;;;;;;;;;5011816;28;20275;-45
2021/05/11 03:59:28;;;;;;;6.27;5.77;;;;;;;;;;4999781;28;20180;-46
2021/05/11 04:01:53;;;;;;;6.00;5.50;;;;;;;;;;5008758;28;20184;-46
2021/05/11 04:04:20;;;;;;;7.68;6.20;;;;;;;;;;5011221;28;20199;-45
2021/05/11 04:06:45;;;;;;;6.50;5.90;;;;;;;;;;5010899;28;20208;-46
2021/05/11 04:12:01;;;;;;;6.10;5.60;;;;;;;;;;5009222;28;20263;-46
2021/05/11 04:17:08;;;;;;;7.40;5.70;;;;;;;;;;5016612;28;20621;-44
2021/05/11 04:19:34;;;;;;;5.97;5.50;;;;;;;;;;5003598;28;20635;-45
2021/05/11 04:21:59;;;;;;;5.43;4.93;;;;;;;;;;5009396;28;20189;-45
2021/05/11 04:24:26;;;;;;;5.70;5.13;;;;;;;;;;5008961;28;20586;-46
2021/05/11 04:26:51;;;;;;;5.33;4.97;;;;;;;;;;5005550;28;20181;-45
2021/05/11 04:29:17;;;;;;;6.00;5.50;;;;;;;;;;5003549;28;20581;-45
2021/05/11 04:31:42;;;;;;;5.97;5.40;;;;;;;;;;5002857;28;20236;-46
2021/05/11 04:34:07;;;;;;;5.60;5.10;;;;;;;;;;5001175;28;20259;-46
2021/05/11 04:36:32;;;;;;;5.22;4.82;;;;;;;;;;4997949;28;20193;-45
2021/05/11 04:38:57;;;;;;;4.90;4.50;;;;;;;;;;5004221;28;20934;-46
2021/05/11 04:41:22;;;;;;;5.63;5.10;;;;;;;;;;4999619;28;20535;-46
2021/05/11 04:43:49;;;;;;;5.17;4.77;;;;;;;;;;5005607;28;20186;-46
2021/05/11 04:48:44;;;;;;;5.20;4.80;;;;;;;;;;5004876;28;20612;-46
2021/05/11 04:51:10;;;;;;;5.37;4.87;;;;;;;;;;5001695;28;20643;-46
2021/05/11 04:53:35;;;;;;;5.43;4.93;;;;;;;;;;5007429;28;20661;-46
2021/05/11 04:56:00;;;;;;;4.90;4.50;;;;;;;;;;5006048;28;20177;-46
2021/05/11 04:58:25;;;;;;;5.03;4.45;;;;;;;;;;5004127;28;20269;-44
2021/05/11 05:00:51;;;;;;;4.77;4.40;;;;;;;;;;5006622;28;20217;-45
2021/05/11 05:03:18;;;;;;;5.43;4.97;;;;;;;;;;5000000;28;20251;-45
2021/05/11 05:05:43;;;;;;;5.00;4.50;;;;;;;;;;5003249;28;20172;-45
2021/05/11 05:08:09;;;;;;;4.80;4.40;;;;;;;;;;4994136;28;20638;-47
2021/05/11 05:10:34;;;;;;;4.40;4.00;;;;;;;;;;5003684;28;20236;-46
2021/05/11 05:12:59;;;;;;;4.75;4.35;;;;;;;;;;5001023;28;20773;-47
2021/05/11 05:15:24;;;;;;;4.70;4.30;;;;;;;;;;5005960;28;20176;-47
2021/05/11 05:17:49;;;;;;;8.07;4.68;;;;;;;;;;5005541;28;20180;-47
2021/05/11 05:20:14;;;;;;;4.97;4.57;;;;;;;;;;4994932;28;20723;-48
2021/05/11 05:22:41;;;;;;;4.90;4.50;;;;;;;;;;4996765;28;20181;-47
2021/05/11 05:25:15;;;;;;;5.60;4.50;;;;;;;;;;4992326;28;20181;-48
2021/05/11 05:27:57;;;;;;;5.30;4.50;;;;;;;;;;5003698;28;20615;-46
2021/05/11 05:30:22;;;;;;;6.07;4.03;;;;;;;;;;5013954;28;20697;-47
2021/05/11 05:32:47;;;;;;;5.37;4.47;;;;;;;;;;5004138;28;20625;-46
2021/05/11 05:35:13;;;;;;;8.70;4.47;;;;;;;;;;5006250;28;20485;-46
2021/05/11 05:37:38;;;;;;;4.77;4.37;;;;;;;;;;5005935;28;20406;-46
2021/05/11 05:40:06;;;;;;;4.47;4.17;;;;;;;;;;5006117;28;20198;-47
2021/05/11 05:42:31;;;;;;;4.83;4.10;;;;;;;;;;5000232;28;20208;-46
2021/05/11 05:44:56;;;;;;;4.37;3.97;;;;;;;;;;5007963;28;20639;-46
2021/05/11 05:47:22;;;;;;;4.37;3.97;;;;;;;;;;5008824;28;20173;-45
2021/05/11 05:49:49;;;;;;;3.90;3.50;;;;;;;;;;5006583;28;20177;-45
2021/05/11 05:52:23;;;;;;;4.80;4.40;;;;;;;;;;5006926;28;20240;-45
2021/05/11 05:54:48;;;;;;;4.47;4.07;;;;;;;;;;4994622;28;21021;-46
2021/05/11 05:57:14;;;;;;;4.53;4.03;;;;;;;;;;4989267;28;20632;-47
2021/05/11 05:59:41;;;;;;;4.50;4.20;;;;;;;;;;4989223;28;20272;-47
2021/05/11 06:02:07;;;;;;;4.97;4.03;;;;;;;;;;4993492;28;20189;-46
2021/05/11 06:04:32;;;;;;;4.50;4.10;;;;;;;;;;5008507;28;20611;-47
2021/05/11 06:06:57;;;;;;;5.50;3.90;;;;;;;;;;4989970;28;20856;-47
2021/05/11 06:09:23;;;;;;;4.30;3.90;;;;;;;;;;5001962;28;20251;-46
2021/05/11 06:12:01;;;;;;;4.63;4.07;;;;;;;;;;4996671;28;20207;-47
2021/05/11 06:14:50;;;;;;;4.83;4.37;;;;;;;;;;5007847;28;20250;-47
2021/05/11 06:17:18;;;;;;;4.43;4.03;;;;;;;;;;5013774;28;20659;-47
2021/05/11 06:19:44;;;;;;;5.80;4.30;;;;;;;;;;5008328;28;20587;-46
2021/05/11 06:22:09;;;;;;;4.20;3.90;;;;;;;;;;5008611;28;20988;-47
2021/05/11 06:24:34;;;;;;;4.20;4.00;;;;;;;;;;5008640;28;20562;-46
2021/05/11 06:26:59;;;;;;;5.70;4.33;;;;;;;;;;5004305;28;20189;-46
2021/05/11 06:29:26;;;;;;;4.30;3.90;;;;;;;;;;5008630;28;20228;-53
2021/05/11 06:31:52;;;;;;;3.97;3.67;;;;;;;;;;5008404;28;20198;-46
2021/05/11 06:34:17;;;;;;;4.67;4.30;;;;;;;;;;5008404;28;20557;-46
2021/05/11 06:36:42;;;;;;;4.47;4.07;;;;;;;;;;5007284;28;20188;-47
2021/05/11 06:39:12;;;;;;;5.05;4.60;;;;;;;;;;5008850;28;20179;-47
2021/05/11 06:41:40;;;;;;;4.43;4.10;;;;;;;;;;4996948;28;20178;-47
2021/05/11 06:44:12;;;;;;;4.43;4.07;;;;;;;;;;4989265;28;20909;-48
2021/05/11 06:54:36;;;;;;;4.20;3.90;;;;;;;;;;5028242;28;20546;-48
2021/05/11 06:57:01;;;;;;;4.60;4.30;;;;;;;;;;5012478;28;21149;-48
2021/05/11 06:59:27;;;;;;;4.00;3.70;;;;;;;;;;5008428;28;20186;-44
2021/05/11 07:01:52;;;;;;;4.10;3.70;;;;;;;;;;5013020;28;20556;-45
2021/05/11 07:04:17;;;;;;;4.27;3.97;;;;;;;;;;5012382;28;20179;-45
2021/05/11 07:06:42;;;;;;;4.53;4.13;;;;;;;;;;5004538;28;20187;-46
2021/05/11 07:09:10;;;;;;;4.35;3.95;;;;;;;;;;4992648;28;20229;-45
2021/05/11 07:14:00;;;;;;;4.75;3.65;;;;;;;;;;5011991;28;20985;-45
2021/05/11 07:16:25;;;;;;;5.23;4.27;;;;;;;;;;5009811;28;20179;-46
2021/05/11 07:18:51;;;;;;;4.63;4.33;;;;;;;;;;5012006;28;20171;-46
2021/05/11 07:21:16;;;;;;;4.90;4.50;;;;;;;;;;5011711;28;20219;-46
2021/05/11 07:23:41;;;;;;;4.90;4.50;;;;;;;;;;5012980;28;20612;-45
2021/05/11 07:31:12;;;;;;;3.88;3.60;;;;;;;;;;4996779;28;20688;-46
2021/05/11 07:33:41;;;;;;;4.43;4.13;;;;;;;;;;5011672;28;20183;-46
2021/05/11 07:36:07;;;;;;;4.77;4.27;;;;;;;;;;5010951;28;20183;-46
2021/05/11 07:38:32;;;;;;;7.77;4.83;;;;;;;;;;5011784;28;20572;-46
2021/05/11 07:40:58;;;;;;;5.10;4.33;;;;;;;;;;5010990;28;20175;-46
2021/05/11 07:43:25;;;;;;;4.67;4.37;;;;;;;;;;5021897;28;20177;-46
2021/05/11 07:46:14;;;;;;;5.33;4.80;;;;;;;;;;5031410;28;20187;-46
2021/05/11 07:49:03;;;;;;;5.27;4.43;;;;;;;;;;5010243;28;20680;-46
2021/05/11 08:04:48;;;;;;;4.70;4.40;;;;;;;;;;5011222;28;20583;-46
2021/05/11 08:15:26;;;;;;;5.00;4.60;;;;;;;;;;5010987;28;20597;-47
2021/05/11 08:18:10;;;;;;;3.90;3.60;;;;;;;;;;4999353;28;20676;-47
2021/05/11 08:28:47;;;;;;;7.70;4.83;;;;;;;;;;5010909;28;20533;-46
2021/05/11 08:31:12;;;;;;;4.47;4.10;;;;;;;;;;5009970;28;20583;-46
2021/05/11 08:33:38;;;;;;;4.60;4.20;;;;;;;;;;5010603;28;20176;-48
2021/05/11 08:36:03;;;;;;;4.93;4.53;;;;;;;;;;4992086;28;20266;-47
2021/05/11 08:38:29;;;;;;;5.17;4.77;;;;;;;;;;4998582;28;20884;-46
2021/05/11 08:40:54;;;;;;;4.73;4.33;;;;;;;;;;5022966;28;20260;-47
2021/05/11 08:43:28;;;;;;;5.20;4.70;;;;;;;;;;5010419;28;20181;-46
2021/05/11 08:45:54;;;;;;;4.67;4.37;;;;;;;;;;5010220;28;20170;-47
2021/05/11 08:48:20;;;;;;;8.13;5.10;;;;;;;;;;5010449;28;20576;-46
2021/05/11 08:50:49;;;;;;;4.70;4.30;;;;;;;;;;5011065;28;20553;-48
2021/05/11 09:07:28;;;;;;;7.40;4.70;;;;;;;;;;4990412;28;20602;-46
2021/05/11 09:26:59;;;;;;;5.17;4.73;;;;;;;;;;5003576;28;20657;-46
2021/05/11 09:30:02;;;;;;;4.30;4.00;;;;;;;;;;5009601;28;20559;-47
2021/05/11 09:32:32;;;;;;;7.60;4.63;;;;;;;;;;5006941;28;20657;-46
2021/05/11 09:54:33;;;;;;;5.10;4.60;;;;;;;;;;5005799;28;20625;-46
2021/05/11 10:00:19;;;;;;;6.33;4.50;;;;;;;;;;4997767;28;20707;-46
2021/05/11 10:14:08;;;;;;;5.03;4.73;;;;;;;;;;5010106;28;20620;-47
2021/05/11 10:44:27;;;;;;;5.53;5.10;;;;;;;;;;4998418;28;20678;-47
2021/05/11 10:49:30;;;;;;;5.30;4.87;;;;;;;;;;5004553;28;20629;-46
2021/05/11 10:52:05;;;;;;;6.17;5.00;;;;;;;;;;5001602;28;20632;-46
2021/05/11 10:54:57;;;;;;;5.47;4.90;;;;;;;;;;4999316;28;20579;-47
2021/05/11 10:57:57;;;;;;;5.77;5.20;;;;;;;;;;4996896;28;20608;-47
2021/05/11 11:03:18;;;;;;;5.70;5.20;;;;;;;;;;5022397;28;20580;-48
2021/05/11 11:05:44;;;;;;;5.80;5.40;;;;;;;;;;5003009;28;21107;-47
2021/05/11 11:08:27;;;;;;;5.70;4.90;;;;;;;;;;4993950;28;20654;-46
2021/05/11 11:11:02;;;;;;;5.00;4.70;;;;;;;;;;4997405;28;20229;-48
2021/05/11 11:13:28;;;;;;;5.63;5.13;;;;;;;;;;4998854;28;20589;-48
2021/05/11 11:15:58;;;;;;;5.53;5.13;;;;;;;;;;4998116;28;20571;-47
2021/05/11 11:18:23;;;;;;;6.13;5.63;;;;;;;;;;5004271;28;20185;-47
2021/05/11 11:20:49;;;;;;;5.80;5.40;;;;;;;;;;4991182;28;20951;-47
2021/05/11 11:23:33;;;;;;;5.17;4.77;;;;;;;;;;5000001;28;20192;-46
2021/05/11 11:26:02;;;;;;;4.90;4.60;;;;;;;;;;4990681;28;21179;-47
2021/05/11 11:28:28;;;;;;;5.67;5.27;;;;;;;;;;4989591;28;20583;-46
2021/05/11 11:30:53;;;;;;;6.10;5.37;;;;;;;;;;4989402;28;21059;-47
2021/05/11 11:33:19;;;;;;;5.27;4.77;;;;;;;;;;5002182;28;20201;-47
2021/05/11 11:35:44;;;;;;;5.33;4.80;;;;;;;;;;4996011;28;20617;-47
2021/05/11 11:38:09;;;;;;;4.82;4.53;;;;;;;;;;5011118;28;20172;-46
2021/05/11 11:40:34;;;;;;;5.40;5.00;;;;;;;;;;5003950;28;20235;-46
2021/05/11 11:42:59;;;;;;;5.20;4.80;;;;;;;;;;4996241;28;20201;-46
2021/05/11 11:45:26;;;;;;;5.63;5.13;;;;;;;;;;4991188;28;20292;-46
2021/05/11 11:47:55;;;;;;;6.07;4.50;;;;;;;;;;5005904;28;20181;-46
2021/05/11 11:50:21;;;;;;;4.70;4.30;;;;;;;;;;5002267;28;20583;-45
2021/05/11 11:57:55;;;;;;;5.70;4.80;;;;;;;;;;4998654;28;21208;-46
2021/05/11 12:00:20;;;;;;;5.50;5.10;;;;;;;;;;5005936;28;20616;-45
2021/05/11 12:03:02;;;;;;;5.77;5.17;;;;;;;;;;5007728;28;20254;-45
2021/05/11 12:05:29;;;;;;;4.90;4.50;;;;;;;;;;4999490;28;20212;-46
2021/05/11 12:08:19;;;;;;;5.30;4.90;;;;;;;;;;4998786;28;20605;-47
2021/05/11 12:10:45;;;;;;;5.70;4.67;;;;;;;;;;4998090;28;21418;-47
2021/05/11 12:13:13;;;;;;;4.90;4.47;;;;;;;;;;5005859;28;20670;-47
2021/05/11 12:15:38;;;;;;;5.20;4.80;;;;;;;;;;4992836;28;20597;-47
2021/05/11 12:18:12;;;;;;;4.53;4.22;;;;;;;;;;5000014;28;20581;-47
2021/05/11 12:20:37;;;;;;;5.83;4.87;;;;;;;;;;5005934;28;20185;-47
2021/05/11 12:23:06;;;;;;;5.40;4.93;;;;;;;;;;5006367;28;20582;-47
2021/05/11 12:25:32;;;;;;;5.57;5.00;;;;;;;;;;5001235;28;20189;-48
2021/05/11 12:27:57;;;;;;;5.40;4.90;;;;;;;;;;4998494;28;20653;-47
2021/05/11 12:30:40;;;;;;;4.93;4.40;;;;;;;;;;4994285;28;20217;-47
2021/05/11 12:33:09;;;;;;;4.97;4.57;;;;;;;;;;4991860;28;20237;-47
2021/05/11 12:35:35;;;;;;;4.50;4.10;;;;;;;;;;5003204;28;21184;-46
2021/05/11 12:38:04;;;;;;;5.80;4.27;;;;;;;;;;4990991;28;20641;-51
2021/05/11 12:40:44;;;;;;;4.60;4.20;;;;;;;;;;5010290;28;20563;-46
2021/05/11 12:43:09;;;;;;;4.83;4.33;;;;;;;;;;5004067;28;20754;-46
2021/05/11 12:45:48;;;;;;;4.28;3.92;;;;;;;;;;4995793;28;20720;-47
2021/05/11 12:48:13;;;;;;;6.70;4.57;;;;;;;;;;5004650;28;20917;-48
2021/05/11 12:50:39;;;;;;;4.83;4.33;;;;;;;;;;5006796;28;20586;-48
2021/05/11 12:58:43;;;;;;;4.30;3.87;;;;;;;;;;5005834;28;20598;-46
2021/05/11 13:01:53;;;;;;;4.13;3.60;;;;;;;;;;5018077;28;20604;-47
2021/05/11 13:26:05;;;;;;;4.03;3.27;;;;;;;;;;5009600;28;20579;-46
2021/05/11 13:28:42;;;;;;;3.53;3.10;;;;;;;;;;4989760;28;20632;-46
2021/05/11 13:31:18;;;;;;;6.00;3.80;;;;;;;;;;4990099;28;20636;-47
2021/05/11 13:36:27;;;;;;;4.20;3.60;;;;;;;;;;4996037;28;20627;-48
2021/05/11 13:38:52;;;;;;;3.95;3.65;;;;;;;;;;5002255;28;20601;-47
2021/05/11 13:41:18;;;;;;;5.68;3.85;;;;;;;;;;4994350;28;20190;-47
2021/05/11 13:43:43;;;;;;;7.87;3.63;;;;;;;;;;5008480;28;20181;-47
2021/05/11 13:46:08;;;;;;;4.25;3.85;;;;;;;;;;4994053;28;20212;-47
2021/05/11 13:48:36;;;;;;;4.10;3.70;;;;;;;;;;5007983;28;20185;-48
2021/05/11 13:51:16;;;;;;;7.40;3.80;;;;;;;;;;5006236;28;20240;-47
2021/05/11 13:53:43;;;;;;;4.23;3.97;;;;;;;;;;4987296;28;20612;-46
2021/05/11 14:04:20;;;;;;;4.00;3.70;;;;;;;;;;4999510;28;20662;-47
2021/05/11 14:06:46;;;;;;;5.00;4.00;;;;;;;;;;5000775;28;21043;-47
2021/05/11 14:09:11;;;;;;;4.17;3.87;;;;;;;;;;5002025;28;20621;-47
2021/05/11 14:11:38;;;;;;;7.63;3.97;;;;;;;;;;5009514;28;20202;-47
2021/05/11 14:14:03;;;;;;;4.30;3.90;;;;;;;;;;4989522;28;20174;-45
2021/05/11 14:16:29;;;;;;;4.50;4.10;;;;;;;;;;4995582;28;20600;-47
2021/05/11 14:18:55;;;;;;;3.37;3.10;;;;;;;;;;5002422;28;20174;-46
2021/05/11 14:21:20;;;;;;;3.70;3.40;;;;;;;;;;4988854;28;20209;-47
2021/05/11 14:23:45;;;;;;;3.97;3.30;;;;;;;;;;4991689;28;20644;-46
2021/05/11 14:26:11;;;;;;;3.40;3.10;;;;;;;;;;4989033;28;20177;-47
2021/05/11 14:28:36;;;;;;;4.53;3.20;;;;;;;;;;5000811;28;20213;-47
2021/05/11 14:31:01;;;;;;;2.97;2.67;;;;;;;;;;4989318;28;20178;-47
2021/05/11 14:33:26;;;;;;;7.00;3.50;;;;;;;;;;5005687;28;20332;-47
2021/05/11 14:35:52;;;;;;;5.60;3.43;;;;;;;;;;5006557;28;20181;-47
2021/05/11 14:38:17;;;;;;;3.37;3.07;;;;;;;;;;4996142;28;20258;-47
2021/05/11 14:40:42;;;;;;;5.22;3.05;;;;;;;;;;4989378;28;20689;-48
2021/05/11 14:43:07;;;;;;;3.83;2.97;;;;;;;;;;4989191;28;20185;-47
2021/05/11 14:45:32;;;;;;;4.33;3.30;;;;;;;;;;4988749;28;20644;-46
2021/05/11 14:47:57;;;;;;;3.92;3.53;;;;;;;;;;4995588;28;20359;-46
2021/05/11 14:50:23;;;;;;;3.40;3.10;;;;;;;;;;4993726;28;20174;-47
2021/05/11 14:52:52;;;;;;;5.30;3.80;;;;;;;;;;5001362;28;20209;-46
2021/05/11 14:55:19;;;;;;;3.40;3.20;;;;;;;;;;5016277;28;20654;-46
2021/05/11 14:57:45;;;;;;;3.07;2.80;;;;;;;;;;5011351;28;20678;-47
2021/05/11 15:00:10;;;;;;;4.03;3.53;;;;;;;;;;5001873;28;20685;-47
2021/05/11 15:02:36;;;;;;;3.07;2.83;;;;;;;;;;4992326;28;20186;-47
2021/05/11 15:05:01;;;;;;;4.05;3.45;;;;;;;;;;5006760;28;20640;-48
2021/05/11 15:07:27;;;;;;;4.37;3.20;;;;;;;;;;5005143;28;20667;-48
2021/05/11 15:09:52;;;;;;;3.80;3.30;;;;;;;;;;5006120;28;20226;-48
2021/05/11 15:12:17;;;;;;;4.57;3.73;;;;;;;;;;4990486;28;20206;-48
2021/05/11 15:14:42;;;;;;;3.60;3.30;;;;;;;;;;4992393;28;20193;-47
2021/05/11 15:19:51;;;;;;;3.90;3.60;;;;;;;;;;5007652;28;20578;-48
2021/05/11 15:22:17;;;;;;;5.20;3.60;;;;;;;;;;5009387;28;20597;-48
2021/05/11 15:24:42;;;;;;;4.70;4.30;;;;;;;;;;5010981;28;20603;-47
2021/05/11 15:27:08;;;;;;;4.13;3.30;;;;;;;;;;5012801;28;20205;-47
2021/05/11 15:29:33;;;;;;;3.50;3.20;;;;;;;;;;5008123;28;20185;-48
2021/05/11 15:31:58;;;;;;;4.43;3.57;;;;;;;;;;5010389;28;20209;-47
2021/05/11 15:34:24;;;;;;;4.65;3.70;;;;;;;;;;5010465;28;20533;-47
2021/05/11 15:36:49;;;;;;;3.90;3.60;;;;;;;;;;5004116;28;20719;-47
2021/05/11 15:39:14;;;;;;;3.97;3.60;;;;;;;;;;5011077;28;20328;-48
2021/05/11 15:41:39;;;;;;;5.80;4.10;;;;;;;;;;5011056;28;20192;-48
2021/05/11 15:44:04;;;;;;;3.53;3.22;;;;;;;;;;5014264;28;20228;-47
2021/05/11 15:46:30;;;;;;;5.13;4.20;;;;;;;;;;5005335;28;20169;-47
2021/05/11 15:48:55;;;;;;;5.30;4.30;;;;;;;;;;5022174;28;20550;-47
2021/05/11 15:51:20;;;;;;;3.70;3.50;;;;;;;;;;5021944;28;20264;-47
2021/05/11 15:53:45;;;;;;;3.78;3.08;;;;;;;;;;5009349;28;20189;-47
2021/05/11 15:56:10;;;;;;;5.80;4.43;;;;;;;;;;5011872;28;20205;-47
2021/05/11 15:58:35;;;;;;;4.90;4.30;;;;;;;;;;5002391;28;20641;-47
2021/05/11 16:01:01;;;;;;;4.90;4.28;;;;;;;;;;4991546;28;20174;-47
2021/05/11 16:03:26;;;;;;;4.90;3.50;;;;;;;;;;4991140;28;20197;-47
2021/05/11 16:05:51;;;;;;;3.97;3.57;;;;;;;;;;4990623;28;20174;-48
2021/05/11 16:08:17;;;;;;;3.13;2.93;;;;;;;;;;4997162;28;20331;-45
2021/05/11 16:10:43;;;;;;;3.50;3.13;;;;;;;;;;4990159;28;20222;-46
2021/05/11 16:13:08;;;;;;;4.17;3.77;;;;;;;;;;4991335;28;20232;-47
2021/05/11 16:15:33;;;;;;;3.50;3.30;;;;;;;;;;5003981;28;20702;-48
2021/05/11 16:17:59;;;;;;;3.80;3.50;;;;;;;;;;5007701;28;20196;-47
2021/05/11 16:20:24;;;;;;;4.80;3.40;;;;;;;;;;5010490;28;20185;-47
2021/05/11 16:22:50;;;;;;;8.37;3.47;;;;;;;;;;4997285;28;20221;-48
2021/05/11 16:25:15;;;;;;;3.40;3.20;;;;;;;;;;4997977;28;20557;-47
2021/05/11 16:27:42;;;;;;;3.83;3.40;;;;;;;;;;4989016;28;20744;-48
2021/05/11 16:30:08;;;;;;;4.17;3.43;;;;;;;;;;4999332;28;20232;-47
2021/05/11 16:32:33;;;;;;;3.30;3.00;;;;;;;;;;5004054;28;20651;-46
2021/05/11 16:34:59;;;;;;;3.65;3.35;;;;;;;;;;5008420;28;20611;-47
2021/05/11 16:37:24;;;;;;;5.27;3.70;;;;;;;;;;4993429;28;20162;-47
2021/05/11 16:39:49;;;;;;;3.33;3.13;;;;;;;;;;5009847;28;20173;-47
2021/05/11 16:42:14;;;;;;;4.20;3.65;;;;;;;;;;5008417;28;20212;-46
2021/05/11 16:44:39;;;;;;;3.67;3.37;;;;;;;;;;4987251;28;20197;-46
2021/05/11 16:47:05;;;;;;;3.40;3.20;;;;;;;;;;4989498;28;20636;-47
2021/05/11 16:49:30;;;;;;;3.50;3.30;;;;;;;;;;4989099;28;20228;-48
2021/05/11 16:51:55;;;;;;;3.73;3.37;;;;;;;;;;4990618;28;20688;-47
2021/05/11 16:54:21;;;;;;;3.87;3.50;;;;;;;;;;5005316;28;20276;-47
2021/05/11 16:56:46;;;;;;;4.43;4.03;;;;;;;;;;4989449;28;20190;-47
2021/05/11 16:59:11;;;;;;;3.70;3.50;;;;;;;;;;4988726;28;20535;-47
2021/05/11 17:01:37;;;;;;;4.90;3.70;;;;;;;;;;4991023;28;20276;-47
2021/05/11 17:04:02;;;;;;;6.07;4.47;;;;;;;;;;5006126;28;20197;-47
2021/05/11 17:06:30;;;;;;;6.67;6.10;;;;;;;;;;5003644;28;20185;-47
2021/05/11 17:08:55;;;;;;;6.50;5.90;;;;;;;;;;4991898;28;20217;-46
2021/05/11 17:11:20;;;;;;;7.43;6.73;;;;;;;;;;4992987;28;21193;-46
2021/05/11 17:13:47;;;;;;;7.00;6.40;;;;;;;;;;5002050;28;20173;-46
2021/05/11 17:16:12;;;;;;;7.17;6.47;;;;;;;;;;5016447;28;20183;-47
2021/05/11 17:18:37;;;;;;;6.70;6.20;;;;;;;;;;5002627;28;20615;-45
2021/05/11 17:21:04;;;;;;;7.10;6.40;;;;;;;;;;5005453;28;20239;-46
2021/05/11 17:23:29;;;;;;;7.60;6.70;;;;;;;;;;4991469;28;20826;-46
2021/05/11 17:25:54;;;;;;;7.70;6.40;;;;;;;;;;4993714;28;20707;-51
2021/05/11 17:28:20;;;;;;;7.20;6.70;;;;;;;;;;4991487;28;20279;-46
2021/05/11 17:30:47;;;;;;;8.27;7.30;;;;;;;;;;4987432;28;20189;-46
2021/05/11 17:33:12;;;;;;;9.43;8.17;;;;;;;;;;4995109;28;20200;-46
2021/05/11 17:35:37;;;;;;;14.40;8.33;;;;;;;;;;4998792;28;20592;-46
2021/05/11 17:38:03;;;;;;;10.03;8.07;;;;;;;;;;4985084;28;20558;-45
2021/05/11 17:40:28;;;;;;;7.90;7.30;;;;;;;;;;5000852;28;20682;-45
2021/05/11 17:42:56;;;;;;;8.20;7.60;;;;;;;;;;4986890;28;20732;-46
2021/05/11 17:45:22;;;;;;;10.80;7.37;;;;;;;;;;5004731;28;20588;-46
2021/05/11 17:47:58;;;;;;;8.70;7.90;;;;;;;;;;5012199;28;20650;-46
2021/05/11 17:50:24;;;;;;;9.70;9.00;;;;;;;;;;5011517;28;20183;-46
2021/05/11 17:52:50;;;;;;;10.17;9.17;;;;;;;;;;5010744;28;21210;-46
2021/05/11 17:55:15;;;;;;;9.83;8.93;;;;;;;;;;4998611;28;20993;-47
2021/05/11 17:57:40;;;;;;;9.63;8.80;;;;;;;;;;5002887;28;20213;-45
2021/05/11 18:00:06;;;;;;;9.70;8.90;;;;;;;;;;4997965;28;20178;-45
2021/05/11 18:02:33;;;;;;;8.63;8.03;;;;;;;;;;4987468;28;20183;-46
2021/05/11 18:04:58;;;;;;;9.40;8.50;;;;;;;;;;4986435;28;20185;-46
2021/05/11 18:07:23;;;;;;;7.95;7.43;;;;;;;;;;4986414;28;20587;-45
2021/05/11 18:09:48;;;;;;;10.30;9.20;;;;;;;;;;4985853;28;20229;-45
2021/05/11 18:12:14;;;;;;;11.17;10.17;;;;;;;;;;5003736;28;20682;-45
2021/05/11 18:14:39;;;;;;;10.18;9.40;;;;;;;;;;4997216;28;20769;-45
2021/05/11 18:17:05;;;;;;;11.33;10.30;;;;;;;;;;5003782;28;20255;-45
2021/05/11 18:19:30;;;;;;;13.00;12.03;;;;;;;;;;5002843;28;20597;-46
2021/05/11 18:21:55;;;;;;;11.70;10.80;;;;;;;;;;4997161;28;20244;-46
2021/05/11 18:24:20;;;;;;;12.70;11.70;;;;;;;;;;4998325;28;20267;-47
2021/05/11 18:26:46;;;;;;;12.63;11.63;;;;;;;;;;5000543;28;20235;-45
2021/05/11 18:29:13;;;;;;;13.70;12.30;;;;;;;;;;5002650;28;20208;-46
2021/05/11 18:31:38;;;;;;;13.30;12.30;;;;;;;;;;4997465;28;20171;-47
2021/05/11 18:34:04;;;;;;;13.68;12.52;;;;;;;;;;4986462;28;20605;-44
2021/05/11 18:36:55;;;;;;;14.80;13.50;;;;;;;;;;4989918;28;20791;-46
2021/05/11 18:39:23;;;;;;;14.93;13.73;;;;;;;;;;4995700;28;20178;-46
2021/05/11 18:41:49;;;;;;;14.93;13.83;;;;;;;;;;5005616;28;20607;-47